Terminal Aerodrome Forecast
Issued by NWS

Home | Current Version | Previous Version | Text Only | Print | Product List | Glossary On
Versions: 1 2 3 4 5 6 7 8 9 10 11 12 13 14 15 16 17 18 19 20 21 22 23 24 25
000
FTUS45 KGGW 221100
TAFOLF
TAF
KOLF 221121Z 2212/2312 05009KT P6SM -SHRA OVC060
     FM221600 07010KT P6SM VCSH OVC050
     FM230000 07014KT P6SM VCSH SCT030 OVC045
     FM230600 07017KT 4SM RA OVC045=

USA.gov is the U.S. government's official web portal to all federal, state and local government web resources and services.